sensor_id;sensor_type;location;lat;lon;timestamp;temperature;humidity
36654;DHT22;22650;49.350;20.898;2023-12-04T00:00:29;-6.70;99.90
36654;DHT22;22650;49.350;20.898;2023-12-04T00:03:03;-6.70;99.90
36654;DHT22;22650;49.350;20.898;2023-12-04T00:05:36;-6.70;99.90
36654;DHT22;22650;49.350;20.898;2023-12-04T00:08:10;-6.70;99.90
36654;DHT22;22650;49.350;20.898;2023-12-04T00:10:43;-6.80;99.90
36654;DHT22;22650;49.350;20.898;2023-12-04T00:13:17;-6.80;99.90
36654;DHT22;22650;49.350;20.898;2023-12-04T00:15:52;-6.80;99.90
36654;DHT22;22650;49.350;20.898;2023-12-04T00:18:26;-6.80;99.90
36654;DHT22;22650;49.350;20.898;2023-12-04T00:20:59;-6.90;99.90
36654;DHT22;22650;49.350;20.898;2023-12-04T00:23:33;-6.90;99.90
36654;DHT22;22650;49.350;20.898;2023-12-04T00:26:07;-7.00;99.90
36654;DHT22;22650;49.350;20.898;2023-12-04T00:28:41;-7.00;99.90
36654;DHT22;22650;49.350;20.898;2023-12-04T00:31:16;-7.10;99.90
36654;DHT22;22650;49.350;20.898;2023-12-04T00:33:50;-7.10;99.90
36654;DHT22;22650;49.350;20.898;2023-12-04T00:36:23;-7.10;99.90
36654;DHT22;22650;49.350;20.898;2023-12-04T00:38:57;-7.10;99.90
36654;DHT22;22650;49.350;20.898;2023-12-04T00:41:30;-7.10;99.90
36654;DHT22;22650;49.350;20.898;2023-12-04T00:44:04;-7.10;99.90
36654;DHT22;22650;49.350;20.898;2023-12-04T00:46:39;-7.10;99.90
36654;DHT22;22650;49.350;20.898;2023-12-04T00:49:12;-7.10;99.90
36654;DHT22;22650;49.350;20.898;2023-12-04T00:51:46;-7.10;99.90
36654;DHT22;22650;49.350;20.898;2023-12-04T00:54:20;-7.20;99.90
36654;DHT22;22650;49.350;20.898;2023-12-04T00:56:53;-7.20;99.90
36654;DHT22;22650;49.350;20.898;2023-12-04T00:59:27;-7.30;99.90
36654;DHT22;22650;49.350;20.898;2023-12-04T01:02:02;-7.30;99.90
36654;DHT22;22650;49.350;20.898;2023-12-04T01:04:36;-7.30;99.90
36654;DHT22;22650;49.350;20.898;2023-12-04T01:07:13;-7.40;99.90
36654;DHT22;22650;49.350;20.898;2023-12-04T01:09:46;-7.40;99.90
36654;DHT22;22650;49.350;20.898;2023-12-04T01:12:20;-7.40;99.90
36654;DHT22;22650;49.350;20.898;2023-12-04T01:14:54;-7.40;99.90
36654;DHT22;22650;49.350;20.898;2023-12-04T01:17:29;-7.40;99.90
36654;DHT22;22650;49.350;20.898;2023-12-04T01:20:04;-7.40;99.90
36654;DHT22;22650;49.350;20.898;2023-12-04T01:22:38;-7.30;99.90
36654;DHT22;22650;49.350;20.898;2023-12-04T01:25:12;-7.30;99.90
36654;DHT22;22650;49.350;20.898;2023-12-04T01:27:45;-7.40;99.90
36654;DHT22;22650;49.350;20.898;2023-12-04T01:30:19;-7.40;99.90
36654;DHT22;22650;49.350;20.898;2023-12-04T01:32:54;-7.40;99.90
36654;DHT22;22650;49.350;20.898;2023-12-04T01:35:27;-7.40;99.90
36654;DHT22;22650;49.350;20.898;2023-12-04T01:38:01;-7.40;99.90
36654;DHT22;22650;49.350;20.898;2023-12-04T01:40:35;-7.30;99.90
36654;DHT22;22650;49.350;20.898;2023-12-04T01:43:09;-7.30;99.90
36654;DHT22;22650;49.350;20.898;2023-12-04T01:45:42;-7.30;99.90
36654;DHT22;22650;49.350;20.898;2023-12-04T01:48:17;-7.30;99.90
36654;DHT22;22650;49.350;20.898;2023-12-04T01:50:51;-7.20;99.90
36654;DHT22;22650;49.350;20.898;2023-12-04T01:53:25;-7.20;99.90
36654;DHT22;22650;49.350;20.898;2023-12-04T01:55:59;-7.20;99.90
36654;DHT22;22650;49.350;20.898;2023-12-04T01:58:33;-7.20;99.90
36654;DHT22;22650;49.350;20.898;2023-12-04T02:01:07;-7.20;99.90
36654;DHT22;22650;49.350;20.898;2023-12-04T02:03:42;-7.20;99.90
36654;DHT22;22650;49.350;20.898;2023-12-04T02:06:17;-7.20;99.90
36654;DHT22;22650;49.350;20.898;2023-12-04T02:08:52;-7.20;99.90
36654;DHT22;22650;49.350;20.898;2023-12-04T02:11:25;-7.20;99.90
36654;DHT22;22650;49.350;20.898;2023-12-04T02:13:59;-7.20;99.90
36654;DHT22;22650;49.350;20.898;2023-12-04T02:16:39;-7.20;99.90
36654;DHT22;22650;49.350;20.898;2023-12-04T02:19:15;-7.20;99.90
36654;DHT22;22650;49.350;20.898;2023-12-04T02:21:49;-7.10;99.90
36654;DHT22;22650;49.350;20.898;2023-12-04T02:24:24;-7.10;99.90
36654;DHT22;22650;49.350;20.898;2023-12-04T02:27:02;-7.10;99.90
36654;DHT22;22650;49.350;20.898;2023-12-04T02:29:42;-7.10;99.90
36654;DHT22;22650;49.350;20.898;2023-12-04T02:32:19;-7.00;99.90
36654;DHT22;22650;49.350;20.898;2023-12-04T02:34:54;-7.00;99.90
36654;DHT22;22650;49.350;20.898;2023-12-04T02:37:29;-7.00;99.90
36654;DHT22;22650;49.350;20.898;2023-12-04T02:40:05;-7.00;99.90
36654;DHT22;22650;49.350;20.898;2023-12-04T02:42:39;-7.00;99.90
36654;DHT22;22650;49.350;20.898;2023-12-04T02:45:13;-6.90;99.90
36654;DHT22;22650;49.350;20.898;2023-12-04T02:47:46;-6.90;99.90
36654;DHT22;22650;49.350;20.898;2023-12-04T02:50:20;-6.80;99.90
36654;DHT22;22650;49.350;20.898;2023-12-04T02:52:54;-6.90;99.90
36654;DHT22;22650;49.350;20.898;2023-12-04T02:55:29;-6.80;99.90
36654;DHT22;22650;49.350;20.898;2023-12-04T02:58:02;-6.80;99.90
36654;DHT22;22650;49.350;20.898;2023-12-04T03:00:36;-6.80;99.90
36654;DHT22;22650;49.350;20.898;2023-12-04T03:03:09;-6.70;99.90
36654;DHT22;22650;49.350;20.898;2023-12-04T03:05:43;-6.70;99.90
36654;DHT22;22650;49.350;20.898;2023-12-04T03:08:16;-6.70;99.90
36654;DHT22;22650;49.350;20.898;2023-12-04T03:10:51;-6.70;99.90
36654;DHT22;22650;49.350;20.898;2023-12-04T03:13:25;-6.60;99.90
36654;DHT22;22650;49.350;20.898;2023-12-04T03:15:58;-6.60;99.90
36654;DHT22;22650;49.350;20.898;2023-12-04T03:18:32;-6.60;99.90
36654;DHT22;22650;49.350;20.898;2023-12-04T03:21:07;-6.60;99.90
36654;DHT22;22650;49.350;20.898;2023-12-04T03:23:40;-6.60;99.90
36654;DHT22;22650;49.350;20.898;2023-12-04T03:26:15;-6.50;99.90
36654;DHT22;22650;49.350;20.898;2023-12-04T03:28:49;-6.50;99.90
36654;DHT22;22650;49.350;20.898;2023-12-04T03:31:23;-6.50;99.90
36654;DHT22;22650;49.350;20.898;2023-12-04T03:33:57;-6.50;99.90
36654;DHT22;22650;49.350;20.898;2023-12-04T03:36:30;-6.40;99.90
36654;DHT22;22650;49.350;20.898;2023-12-04T03:39:04;-6.50;99.90
36654;DHT22;22650;49.350;20.898;2023-12-04T03:41:39;-6.50;99.90
36654;DHT22;22650;49.350;20.898;2023-12-04T03:44:13;-6.50;99.90
36654;DHT22;22650;49.350;20.898;2023-12-04T03:46:46;-6.50;99.90
36654;DHT22;22650;49.350;20.898;2023-12-04T03:49:20;-6.50;99.90
36654;DHT22;22650;49.350;20.898;2023-12-04T03:51:53;-6.50;99.90
36654;DHT22;22650;49.350;20.898;2023-12-04T03:54:27;-6.50;99.90
36654;DHT22;22650;49.350;20.898;2023-12-04T03:57:03;-6.50;99.90
36654;DHT22;22650;49.350;20.898;2023-12-04T03:59:37;-6.40;99.90
36654;DHT22;22650;49.350;20.898;2023-12-04T04:02:10;-6.40;99.90
36654;DHT22;22650;49.350;20.898;2023-12-04T04:04:44;-6.40;99.90
36654;DHT22;22650;49.350;20.898;2023-12-04T04:07:17;-6.40;99.90
36654;DHT22;22650;49.350;20.898;2023-12-04T04:09:51;-6.30;99.90
36654;DHT22;22650;49.350;20.898;2023-12-04T04:12:26;-6.30;99.90
36654;DHT22;22650;49.350;20.898;2023-12-04T04:15:00;-6.30;99.90
36654;DHT22;22650;49.350;20.898;2023-12-04T04:17:35;-6.30;99.90
36654;DHT22;22650;49.350;20.898;2023-12-04T04:20:09;-6.20;99.90
36654;DHT22;22650;49.350;20.898;2023-12-04T04:22:44;-6.20;99.90
36654;DHT22;22650;49.350;20.898;2023-12-04T04:25:18;-6.20;99.90
36654;DHT22;22650;49.350;20.898;2023-12-04T04:27:55;-6.20;99.90
36654;DHT22;22650;49.350;20.898;2023-12-04T04:30:29;-6.20;99.90
36654;DHT22;22650;49.350;20.898;2023-12-04T04:33:03;-6.20;99.90
36654;DHT22;22650;49.350;20.898;2023-12-04T04:35:37;-6.20;99.90
36654;DHT22;22650;49.350;20.898;2023-12-04T04:38:10;-6.10;99.90
36654;DHT22;22650;49.350;20.898;2023-12-04T04:40:44;-6.10;99.90
36654;DHT22;22650;49.350;20.898;2023-12-04T04:43:19;-6.10;99.90
36654;DHT22;22650;49.350;20.898;2023-12-04T04:45:53;-6.10;99.90
36654;DHT22;22650;49.350;20.898;2023-12-04T04:48:26;-6.10;99.90
36654;DHT22;22650;49.350;20.898;2023-12-04T04:51:00;-6.10;99.90
36654;DHT22;22650;49.350;20.898;2023-12-04T04:53:34;-6.20;99.90
36654;DHT22;22650;49.350;20.898;2023-12-04T04:56:09;-6.20;99.90
36654;DHT22;22650;49.350;20.898;2023-12-04T04:58:44;-6.30;99.90
36654;DHT22;22650;49.350;20.898;2023-12-04T05:01:24;-6.30;99.90
36654;DHT22;22650;49.350;20.898;2023-12-04T05:03:57;-6.30;99.90
36654;DHT22;22650;49.350;20.898;2023-12-04T05:06:32;-6.30;99.90
36654;DHT22;22650;49.350;20.898;2023-12-04T05:09:06;-6.30;99.90
36654;DHT22;22650;49.350;20.898;2023-12-04T05:11:39;-6.30;99.90
36654;DHT22;22650;49.350;20.898;2023-12-04T05:14:14;-6.30;99.90
36654;DHT22;22650;49.350;20.898;2023-12-04T05:16:48;-6.30;99.90
36654;DHT22;22650;49.350;20.898;2023-12-04T05:19:21;-6.30;99.90
36654;DHT22;22650;49.350;20.898;2023-12-04T05:21:55;-6.30;99.90
36654;DHT22;22650;49.350;20.898;2023-12-04T05:24:29;-6.30;99.90
36654;DHT22;22650;49.350;20.898;2023-12-04T05:27:03;-6.30;99.90
36654;DHT22;22650;49.350;20.898;2023-12-04T05:29:38;-6.40;99.90
36654;DHT22;22650;49.350;20.898;2023-12-04T05:32:11;-6.40;99.90
36654;DHT22;22650;49.350;20.898;2023-12-04T05:34:45;-6.40;99.90
36654;DHT22;22650;49.350;20.898;2023-12-04T05:37:19;-6.40;99.90
36654;DHT22;22650;49.350;20.898;2023-12-04T05:39:53;-6.40;99.90
36654;DHT22;22650;49.350;20.898;2023-12-04T05:42:27;-6.40;99.90
36654;DHT22;22650;49.350;20.898;2023-12-04T05:45:02;-6.40;99.90
36654;DHT22;22650;49.350;20.898;2023-12-04T05:47:35;-6.40;99.90
36654;DHT22;22650;49.350;20.898;2023-12-04T05:50:10;-6.40;99.90
36654;DHT22;22650;49.350;20.898;2023-12-04T05:52:44;-6.40;99.90
36654;DHT22;22650;49.350;20.898;2023-12-04T05:55:18;-6.50;99.90
36654;DHT22;22650;49.350;20.898;2023-12-04T05:57:52;-6.50;99.90
36654;DHT22;22650;49.350;20.898;2023-12-04T06:00:27;-6.50;99.90
36654;DHT22;22650;49.350;20.898;2023-12-04T06:03:01;-6.50;99.90
36654;DHT22;22650;49.350;20.898;2023-12-04T06:05:35;-6.50;99.90
36654;DHT22;22650;49.350;20.898;2023-12-04T06:08:08;-6.60;99.90
36654;DHT22;22650;49.350;20.898;2023-12-04T06:10:42;-6.70;99.90
36654;DHT22;22650;49.350;20.898;2023-12-04T06:13:16;-6.70;99.90
36654;DHT22;22650;49.350;20.898;2023-12-04T06:15:51;-6.70;99.90
36654;DHT22;22650;49.350;20.898;2023-12-04T06:18:24;-6.80;99.90
36654;DHT22;22650;49.350;20.898;2023-12-04T06:21:00;-6.80;99.90
36654;DHT22;22650;49.350;20.898;2023-12-04T06:23:34;-6.80;99.90
36654;DHT22;22650;49.350;20.898;2023-12-04T06:26:10;-6.80;99.90
36654;DHT22;22650;49.350;20.898;2023-12-04T06:28:45;-6.80;99.90
36654;DHT22;22650;49.350;20.898;2023-12-04T06:31:21;-6.80;99.90
36654;DHT22;22650;49.350;20.898;2023-12-04T06:33:55;-6.80;99.90
36654;DHT22;22650;49.350;20.898;2023-12-04T06:36:31;-6.80;99.90
36654;DHT22;22650;49.350;20.898;2023-12-04T06:39:10;-6.80;99.90
36654;DHT22;22650;49.350;20.898;2023-12-04T06:41:45;-6.90;99.90
36654;DHT22;22650;49.350;20.898;2023-12-04T06:44:21;-6.90;99.90
36654;DHT22;22650;49.350;20.898;2023-12-04T06:46:58;-6.90;99.90
36654;DHT22;22650;49.350;20.898;2023-12-04T06:49:34;-6.90;99.90
36654;DHT22;22650;49.350;20.898;2023-12-04T06:52:08;-6.90;99.90
36654;DHT22;22650;49.350;20.898;2023-12-04T06:54:41;-6.90;99.90
36654;DHT22;22650;49.350;20.898;2023-12-04T06:57:15;-6.80;99.90
36654;DHT22;22650;49.350;20.898;2023-12-04T06:59:49;-6.90;99.90
36654;DHT22;22650;49.350;20.898;2023-12-04T07:02:24;-6.80;99.90
36654;DHT22;22650;49.350;20.898;2023-12-04T07:04:58;-6.80;99.90
36654;DHT22;22650;49.350;20.898;2023-12-04T07:07:32;-6.80;99.90
36654;DHT22;22650;49.350;20.898;2023-12-04T07:10:06;-6.70;99.90
36654;DHT22;22650;49.350;20.898;2023-12-04T07:12:40;-6.70;99.90
36654;DHT22;22650;49.350;20.898;2023-12-04T07:15:14;-6.60;99.90
36654;DHT22;22650;49.350;20.898;2023-12-04T07:17:50;-6.50;99.90
36654;DHT22;22650;49.350;20.898;2023-12-04T07:20:27;-6.60;99.90
36654;DHT22;22650;49.350;20.898;2023-12-04T07:23:01;-6.60;99.90
36654;DHT22;22650;49.350;20.898;2023-12-04T07:25:35;-6.50;99.90
36654;DHT22;22650;49.350;20.898;2023-12-04T07:28:08;-6.50;99.90
36654;DHT22;22650;49.350;20.898;2023-12-04T07:30:42;-6.40;99.90
36654;DHT22;22650;49.350;20.898;2023-12-04T07:33:17;-6.50;99.90
36654;DHT22;22650;49.350;20.898;2023-12-04T07:35:51;-6.60;99.90
36654;DHT22;22650;49.350;20.898;2023-12-04T07:38:24;-6.50;99.90
36654;DHT22;22650;49.350;20.898;2023-12-04T07:41:00;-6.60;99.90
36654;DHT22;22650;49.350;20.898;2023-12-04T07:43:34;-6.50;99.90
36654;DHT22;22650;49.350;20.898;2023-12-04T07:46:09;-6.60;99.90
36654;DHT22;22650;49.350;20.898;2023-12-04T07:48:45;-6.50;99.90
36654;DHT22;22650;49.350;20.898;2023-12-04T07:51:19;-6.50;99.90
36654;DHT22;22650;49.350;20.898;2023-12-04T07:53:52;-6.50;99.90
36654;DHT22;22650;49.350;20.898;2023-12-04T07:56:26;-6.50;99.90
36654;DHT22;22650;49.350;20.898;2023-12-04T07:59:00;-6.60;99.90
36654;DHT22;22650;49.350;20.898;2023-12-04T08:01:33;-6.70;99.90
36654;DHT22;22650;49.350;20.898;2023-12-04T08:04:09;-6.60;99.90
36654;DHT22;22650;49.350;20.898;2023-12-04T08:06:42;-6.60;99.90
36654;DHT22;22650;49.350;20.898;2023-12-04T08:09:16;-6.60;99.90
36654;DHT22;22650;49.350;20.898;2023-12-04T08:11:50;-6.60;99.90
36654;DHT22;22650;49.350;20.898;2023-12-04T08:14:26;-6.50;99.90
36654;DHT22;22650;49.350;20.898;2023-12-04T08:17:00;-6.50;99.90
36654;DHT22;22650;49.350;20.898;2023-12-04T08:19:35;-6.40;99.90
36654;DHT22;22650;49.350;20.898;2023-12-04T08:22:10;-6.40;99.90
36654;DHT22;22650;49.350;20.898;2023-12-04T08:24:43;-6.40;99.90
36654;DHT22;22650;49.350;20.898;2023-12-04T08:27:17;-6.30;99.90
36654;DHT22;22650;49.350;20.898;2023-12-04T08:29:51;-6.10;99.90
36654;DHT22;22650;49.350;20.898;2023-12-04T08:32:24;-6.00;99.90
36654;DHT22;22650;49.350;20.898;2023-12-04T08:35:01;-5.80;99.90
36654;DHT22;22650;49.350;20.898;2023-12-04T08:37:36;-5.60;99.90
36654;DHT22;22650;49.350;20.898;2023-12-04T08:40:10;-5.50;99.90
36654;DHT22;22650;49.350;20.898;2023-12-04T08:42:44;-5.20;99.90
36654;DHT22;22650;49.350;20.898;2023-12-04T08:45:17;-5.10;99.90
36654;DHT22;22650;49.350;20.898;2023-12-04T08:47:51;-4.90;99.90
36654;DHT22;22650;49.350;20.898;2023-12-04T08:50:27;-4.80;99.90
36654;DHT22;22650;49.350;20.898;2023-12-04T08:53:03;-4.60;99.90
36654;DHT22;22650;49.350;20.898;2023-12-04T08:55:36;-4.50;99.90
36654;DHT22;22650;49.350;20.898;2023-12-04T08:58:10;-4.30;99.90
36654;DHT22;22650;49.350;20.898;2023-12-04T09:00:44;-4.20;99.90
36654;DHT22;22650;49.350;20.898;2023-12-04T09:03:17;-4.10;99.90
36654;DHT22;22650;49.350;20.898;2023-12-04T09:06:05;-4.00;99.90
36654;DHT22;22650;49.350;20.898;2023-12-04T09:08:38;-3.90;99.90
36654;DHT22;22650;49.350;20.898;2023-12-04T09:11:22;-3.80;99.90
36654;DHT22;22650;49.350;20.898;2023-12-04T09:13:57;-3.70;99.90
36654;DHT22;22650;49.350;20.898;2023-12-04T09:16:30;-3.60;99.90
36654;DHT22;22650;49.350;20.898;2023-12-04T09:19:04;-3.40;99.90
36654;DHT22;22650;49.350;20.898;2023-12-04T09:21:40;-3.20;99.90
36654;DHT22;22650;49.350;20.898;2023-12-04T09:24:13;-3.10;99.90
36654;DHT22;22650;49.350;20.898;2023-12-04T09:26:47;-3.00;99.90
36654;DHT22;22650;49.350;20.898;2023-12-04T09:29:21;-2.80;99.90
36654;DHT22;22650;49.350;20.898;2023-12-04T09:31:56;-2.60;99.90
36654;DHT22;22650;49.350;20.898;2023-12-04T09:34:30;-2.40;99.90
36654;DHT22;22650;49.350;20.898;2023-12-04T09:37:05;-2.10;99.90
36654;DHT22;22650;49.350;20.898;2023-12-04T09:39:43;-1.90;99.90
36654;DHT22;22650;49.350;20.898;2023-12-04T09:42:18;-1.70;99.90
36654;DHT22;22650;49.350;20.898;2023-12-04T09:44:52;-1.50;99.90
36654;DHT22;22650;49.350;20.898;2023-12-04T09:47:26;-1.30;99.90
36654;DHT22;22650;49.350;20.898;2023-12-04T09:50:00;-1.10;99.90
36654;DHT22;22650;49.350;20.898;2023-12-04T09:52:35;-0.80;99.90
36654;DHT22;22650;49.350;20.898;2023-12-04T09:55:09;-0.60;99.90
36654;DHT22;22650;49.350;20.898;2023-12-04T09:57:44;-0.30;99.90
36654;DHT22;22650;49.350;20.898;2023-12-04T10:00:19;-0.10;99.90
36654;DHT22;22650;49.350;20.898;2023-12-04T10:02:54;0.20;99.90
36654;DHT22;22650;49.350;20.898;2023-12-04T10:05:28;0.40;99.90
36654;DHT22;22650;49.350;20.898;2023-12-04T10:08:04;0.50;99.90
36654;DHT22;22650;49.350;20.898;2023-12-04T10:10:38;0.60;99.90
36654;DHT22;22650;49.350;20.898;2023-12-04T10:13:12;0.80;99.90
36654;DHT22;22650;49.350;20.898;2023-12-04T10:16:08;1.00;99.90
36654;DHT22;22650;49.350;20.898;2023-12-04T10:18:42;1.20;99.90
36654;DHT22;22650;49.350;20.898;2023-12-04T10:21:15;1.40;99.90
36654;DHT22;22650;49.350;20.898;2023-12-04T10:23:55;1.50;98.70
36654;DHT22;22650;49.350;20.898;2023-12-04T10:26:28;1.40;98.80
36654;DHT22;22650;49.350;20.898;2023-12-04T10:29:03;1.50;98.20
36654;DHT22;22650;49.350;20.898;2023-12-04T10:31:37;1.50;97.00
36654;DHT22;22650;49.350;20.898;2023-12-04T10:34:11;1.60;98.00
36654;DHT22;22650;49.350;20.898;2023-12-04T10:36:45;1.70;97.80
36654;DHT22;22650;49.350;20.898;2023-12-04T10:39:21;1.90;97.90
36654;DHT22;22650;49.350;20.898;2023-12-04T10:42:02;2.00;97.30
36654;DHT22;22650;49.350;20.898;2023-12-04T10:44:35;2.20;96.60
36654;DHT22;22650;49.350;20.898;2023-12-04T10:47:09;2.30;96.30
36654;DHT22;22650;49.350;20.898;2023-12-04T10:49:43;2.40;95.80
36654;DHT22;22650;49.350;20.898;2023-12-04T10:52:18;2.50;95.80
36654;DHT22;22650;49.350;20.898;2023-12-04T10:54:53;2.70;95.50
36654;DHT22;22650;49.350;20.898;2023-12-04T10:57:37;2.90;94.90
36654;DHT22;22650;49.350;20.898;2023-12-04T11:00:13;3.00;93.20
36654;DHT22;22650;49.350;20.898;2023-12-04T11:02:49;3.00;93.80
36654;DHT22;22650;49.350;20.898;2023-12-04T11:05:26;3.00;93.30
36654;DHT22;22650;49.350;20.898;2023-12-04T11:08:02;3.10;93.50
36654;DHT22;22650;49.350;20.898;2023-12-04T11:10:54;3.10;92.50
36654;DHT22;22650;49.350;20.898;2023-12-04T11:13:31;3.10;92.00
36654;DHT22;22650;49.350;20.898;2023-12-04T11:16:09;3.20;92.80
36654;DHT22;22650;49.350;20.898;2023-12-04T11:18:51;3.40;92.60
36654;DHT22;22650;49.350;20.898;2023-12-04T11:21:28;3.30;91.30
36654;DHT22;22650;49.350;20.898;2023-12-04T11:24:04;3.40;90.70
36654;DHT22;22650;49.350;20.898;2023-12-04T11:26:40;3.40;90.60
36654;DHT22;22650;49.350;20.898;2023-12-04T11:29:14;3.30;91.10
36654;DHT22;22650;49.350;20.898;2023-12-04T11:31:49;3.30;90.90
36654;DHT22;22650;49.350;20.898;2023-12-04T11:34:24;3.30;91.50
36654;DHT22;22650;49.350;20.898;2023-12-04T11:36:58;3.20;90.70
36654;DHT22;22650;49.350;20.898;2023-12-04T11:39:34;3.20;90.30
36654;DHT22;22650;49.350;20.898;2023-12-04T11:42:11;3.20;90.90
36654;DHT22;22650;49.350;20.898;2023-12-04T11:44:45;3.10;90.00
36654;DHT22;22650;49.350;20.898;2023-12-04T11:47:21;3.30;90.10
36654;DHT22;22650;49.350;20.898;2023-12-04T11:49:54;3.20;89.60
36654;DHT22;22650;49.350;20.898;2023-12-04T11:52:34;3.30;90.40
36654;DHT22;22650;49.350;20.898;2023-12-04T11:55:08;3.40;90.40
36654;DHT22;22650;49.350;20.898;2023-12-04T11:57:43;3.60;90.30
36654;DHT22;22650;49.350;20.898;2023-12-04T12:00:22;3.60;89.30
36654;DHT22;22650;49.350;20.898;2023-12-04T12:03:05;3.60;88.20
36654;DHT22;22650;49.350;20.898;2023-12-04T12:05:55;3.60;87.60
36654;DHT22;22650;49.350;20.898;2023-12-04T12:08:29;3.70;90.00
36654;DHT22;22650;49.350;20.898;2023-12-04T12:11:03;3.80;90.10
36654;DHT22;22650;49.350;20.898;2023-12-04T12:13:42;3.90;90.00
36654;DHT22;22650;49.350;20.898;2023-12-04T12:16:18;4.00;88.60
36654;DHT22;22650;49.350;20.898;2023-12-04T12:18:52;3.90;86.60
36654;DHT22;22650;49.350;20.898;2023-12-04T12:21:27;4.00;90.00
36654;DHT22;22650;49.350;20.898;2023-12-04T12:24:01;4.20;90.20
36654;DHT22;22650;49.350;20.898;2023-12-04T12:26:35;4.40;90.20
36654;DHT22;22650;49.350;20.898;2023-12-04T12:29:10;4.60;90.00
36654;DHT22;22650;49.350;20.898;2023-12-04T12:31:44;4.70;89.30
36654;DHT22;22650;49.350;20.898;2023-12-04T12:34:19;4.80;88.20
36654;DHT22;22650;49.350;20.898;2023-12-04T12:36:53;4.90;88.60
36654;DHT22;22650;49.350;20.898;2023-12-04T12:39:27;4.80;86.90
36654;DHT22;22650;49.350;20.898;2023-12-04T12:42:02;4.80;87.30
36654;DHT22;22650;49.350;20.898;2023-12-04T12:44:39;4.80;87.30
36654;DHT22;22650;49.350;20.898;2023-12-04T12:47:15;4.50;86.50
36654;DHT22;22650;49.350;20.898;2023-12-04T12:49:48;4.30;85.70
36654;DHT22;22650;49.350;20.898;2023-12-04T12:52:22;4.10;85.70
36654;DHT22;22650;49.350;20.898;2023-12-04T12:54:55;4.00;87.30
36654;DHT22;22650;49.350;20.898;2023-12-04T12:57:30;3.60;86.60
36654;DHT22;22650;49.350;20.898;2023-12-04T13:00:07;3.30;86.90
36654;DHT22;22650;49.350;20.898;2023-12-04T13:02:40;3.00;87.80
36654;DHT22;22650;49.350;20.898;2023-12-04T13:05:14;2.70;89.70
36654;DHT22;22650;49.350;20.898;2023-12-04T13:07:50;2.60;90.10
36654;DHT22;22650;49.350;20.898;2023-12-04T13:10:23;2.50;90.40
36654;DHT22;22650;49.350;20.898;2023-12-04T13:12:58;2.40;90.10
36654;DHT22;22650;49.350;20.898;2023-12-04T13:15:33;2.20;90.60
36654;DHT22;22650;49.350;20.898;2023-12-04T13:18:07;2.30;91.50
36654;DHT22;22650;49.350;20.898;2023-12-04T13:20:41;2.10;91.00
36654;DHT22;22650;49.350;20.898;2023-12-04T13:23:15;1.70;91.40
36654;DHT22;22650;49.350;20.898;2023-12-04T13:25:49;1.50;92.00
36654;DHT22;22650;49.350;20.898;2023-12-04T13:28:22;1.40;92.70
36654;DHT22;22650;49.350;20.898;2023-12-04T13:31:08;1.20;93.00
36654;DHT22;22650;49.350;20.898;2023-12-04T13:33:42;1.20;93.40
36654;DHT22;22650;49.350;20.898;2023-12-04T13:36:18;0.90;93.50
36654;DHT22;22650;49.350;20.898;2023-12-04T13:38:52;0.70;94.00
36654;DHT22;22650;49.350;20.898;2023-12-04T13:41:25;0.60;94.60
36654;DHT22;22650;49.350;20.898;2023-12-04T13:44:16;0.50;95.20
36654;DHT22;22650;49.350;20.898;2023-12-04T13:46:52;0.30;95.50
36654;DHT22;22650;49.350;20.898;2023-12-04T13:49:26;0.30;96.00
36654;DHT22;22650;49.350;20.898;2023-12-04T13:51:59;0.00;96.50
36654;DHT22;22650;49.350;20.898;2023-12-04T13:54:36;-0.10;97.20
36654;DHT22;22650;49.350;20.898;2023-12-04T13:57:16;-0.30;98.00
36654;DHT22;22650;49.350;20.898;2023-12-04T13:59:53;-0.60;99.00
36654;DHT22;22650;49.350;20.898;2023-12-04T14:02:29;-0.70;99.90
36654;DHT22;22650;49.350;20.898;2023-12-04T14:05:03;-0.80;99.90
36654;DHT22;22650;49.350;20.898;2023-12-04T14:07:37;-0.90;99.90
36654;DHT22;22650;49.350;20.898;2023-12-04T14:10:12;-1.00;99.90
36654;DHT22;22650;49.350;20.898;2023-12-04T14:12:46;-1.10;99.90
36654;DHT22;22650;49.350;20.898;2023-12-04T14:15:20;-1.20;99.90
36654;DHT22;22650;49.350;20.898;2023-12-04T14:17:55;-1.20;99.90
36654;DHT22;22650;49.350;20.898;2023-12-04T14:20:29;-1.30;99.90
36654;DHT22;22650;49.350;20.898;2023-12-04T14:23:02;-1.30;99.90
36654;DHT22;22650;49.350;20.898;2023-12-04T14:25:37;-1.50;99.90
36654;DHT22;22650;49.350;20.898;2023-12-04T14:28:11;-1.50;99.90
36654;DHT22;22650;49.350;20.898;2023-12-04T14:30:45;-1.60;99.90
36654;DHT22;22650;49.350;20.898;2023-12-04T14:33:20;-1.70;99.90
36654;DHT22;22650;49.350;20.898;2023-12-04T14:35:53;-1.70;99.90
36654;DHT22;22650;49.350;20.898;2023-12-04T14:38:28;-1.80;99.90
36654;DHT22;22650;49.350;20.898;2023-12-04T14:41:03;-1.90;99.90
36654;DHT22;22650;49.350;20.898;2023-12-04T14:43:38;-1.90;99.90
36654;DHT22;22650;49.350;20.898;2023-12-04T14:46:12;-2.00;99.90
36654;DHT22;22650;49.350;20.898;2023-12-04T14:48:47;-2.10;99.90
36654;DHT22;22650;49.350;20.898;2023-12-04T14:51:21;-2.10;99.90
36654;DHT22;22650;49.350;20.898;2023-12-04T14:53:56;-2.20;99.90
36654;DHT22;22650;49.350;20.898;2023-12-04T14:56:45;-2.40;99.90
36654;DHT22;22650;49.350;20.898;2023-12-04T14:59:45;-2.40;99.90
36654;DHT22;22650;49.350;20.898;2023-12-04T15:02:52;-2.40;99.90
36654;DHT22;22650;49.350;20.898;2023-12-04T15:06:12;-2.50;99.90
36654;DHT22;22650;49.350;20.898;2023-12-04T15:08:59;-2.50;99.90
36654;DHT22;22650;49.350;20.898;2023-12-04T15:11:59;-2.60;99.90
36654;DHT22;22650;49.350;20.898;2023-12-04T15:15:00;-2.70;99.90
36654;DHT22;22650;49.350;20.898;2023-12-04T15:17:45;-2.90;99.90
36654;DHT22;22650;49.350;20.898;2023-12-04T15:20:23;-3.00;99.90
36654;DHT22;22650;49.350;20.898;2023-12-04T15:23:06;-3.10;99.90
36654;DHT22;22650;49.350;20.898;2023-12-04T15:25:40;-3.10;99.90
36654;DHT22;22650;49.350;20.898;2023-12-04T15:28:13;-3.20;99.90
36654;DHT22;22650;49.350;20.898;2023-12-04T15:30:46;-3.10;99.90
36654;DHT22;22650;49.350;20.898;2023-12-04T15:33:20;-3.20;99.90
36654;DHT22;22650;49.350;20.898;2023-12-04T15:35:54;-3.30;99.90
36654;DHT22;22650;49.350;20.898;2023-12-04T15:38:30;-3.30;99.90
36654;DHT22;22650;49.350;20.898;2023-12-04T15:41:02;-3.40;99.90
36654;DHT22;22650;49.350;20.898;2023-12-04T15:43:36;-3.40;99.90
36654;DHT22;22650;49.350;20.898;2023-12-04T15:46:09;-3.40;99.90
36654;DHT22;22650;49.350;20.898;2023-12-04T15:48:44;-3.40;99.90
36654;DHT22;22650;49.350;20.898;2023-12-04T15:51:17;-3.40;99.90
36654;DHT22;22650;49.350;20.898;2023-12-04T15:53:52;-3.40;99.90
36654;DHT22;22650;49.350;20.898;2023-12-04T15:56:24;-3.50;99.90
36654;DHT22;22650;49.350;20.898;2023-12-04T15:58:58;-3.60;99.90
36654;DHT22;22650;49.350;20.898;2023-12-04T16:01:33;-3.60;99.90
36654;DHT22;22650;49.350;20.898;2023-12-04T16:04:06;-3.60;99.90
36654;DHT22;22650;49.350;20.898;2023-12-04T16:06:40;-3.70;99.90
36654;DHT22;22650;49.350;20.898;2023-12-04T16:09:15;-3.70;99.90